logo
App data

Sweezy Gunner

Sweezy Gunner is an eye melting, brain bending, mouse squeezing 2D Shoot em up. destroy everything in your path, Upgrade the Sweezy Gunner ship. A Large open World! Travel through the lush green fields, frozen tundra and arid desert. Explore the depths of the many dungeons, caves and temples and collect that tasty loot!
Store | Hub | SteamDB | Site
Developer: Windybeard Publisher: Windybeard
Genre: Action, Indie
Languages: English
Tags: Indie (35), Action (35), Bullet Hell (17), Space (13), Shoot 'Em Up (12), Shooter (11)
Category: Single-player, Steam Achievements, Steam Trading Cards
Release date: May 6, 2014
Price: $3.99
Old userscore: 82% Owners: 20,000 .. 50,000
Followers: 288
Peak concurrent players yesterday: 1
Playtime total: 03:10 (average) 03:39 (median)

Steam Spy is still in beta, so expect major bugs.

Owners data:

Access restricted.

This feature is only available to users with special access rights. Sorry.

If you want to proceed, you need to register or log in first and then back Steam Spy on Patreon. Look for Indie or Pro pledge.

Don't forget to use the same email as on Steam Spy!

Audience in 2 weeks:

Access restricted.

This feature is only available to users with special access rights. Sorry.

If you want to proceed, you need to register or log in first and then back Steam Spy on Patreon. Look for Indie or Pro pledge.

Don't forget to use the same email as on Steam Spy!

Peak daily concurrent players:

CCU data courtesy of SteamDB. Used with permission.

Hourly concurrent players:

Daily Twitch stats:

Hourly Twitch stats:

Followers over time

Access restricted.

This feature is only available to users with special access rights. Sorry.

If you want to proceed, you need to register or log in first and then back Steam Spy on Patreon. Look for Indie or Pro pledge.

Don't forget to use the same email as on Steam Spy!

Views for top 50 videos on YouTube for this game:

YouTube's Terms of Service

The views data is based on top 50 videos uploaded last week. Actual number of views might be more than the number shown.

If the game has commonly used word as its name (like "FEAR" or "Volume") its number of Youtube views might be wrong.

Games similar to this one:

# Game Release date
Price
Score rank
(Userscore / Metascore)
Owners
Players
Playtime (Median)
1 Ichi Jun 12, 2014 $4.99N/A (N/A)100,000 .. 200,0000%00:00 (00:00)
2 Zenzizenzic Jul 23, 2015 $9.99N/A (N/A/85%)0 .. 20,0000%00:00 (00:00)
3 The Blue Flamingo Nov 18, 2014 $4.99N/A (N/A/55%)100,000 .. 200,0000%00:00 (00:00)
4 Letter Quest: Grimm's Journey Nov 20, 2014 N/AN/A (N/A/73%)50,000 .. 100,0000%00:00 (00:00)
5 Hidden in Plain Sight Jul 16, 2014 $5.99N/A (N/A)20,000 .. 50,0000%00:00 (00:00)
6 Shutshimi Aug 25, 2015 $4.99N/A (N/A)50,000 .. 100,0000%00:00 (00:00)
7 Cute Things Dying Violently Sep 2, 2015 $2.99N/A (N/A)0 .. 20,0000%00:00 (00:00)
8 National Zombie Park Dec 15, 2014 $0.99N/A (N/A)100,000 .. 200,0000%00:00 (00:00)
9 Wildlife Park 2 - Horses Oct 12, 2007 $3.99N/A (N/A)0 .. 20,0000%00:00 (00:00)
10 Square Heroes Apr 9, 2015 $3.99N/A (N/A)20,000 .. 50,0000%00:00 (00:00)
11 Metrocide Dec 15, 2014 $12.99N/A (N/A/68%)50,000 .. 100,0000%00:00 (00:00)
12 Castle Jan 7, 2015 $4.99N/A (N/A)50,000 .. 100,0000%00:00 (00:00)
13 Jamsouls Aug 24, 2014 $3.99N/A (N/A)0 .. 20,0000%00:00 (00:00)
14 Cubot Jan 8, 2015 $1.99N/A (N/A)20,000 .. 50,0000%00:00 (00:00)
15 Bloop Reloaded Feb 6, 2015 FreeN/A (N/A)200,000 .. 500,0000%00:00 (00:00)
16 Spy Chameleon - RGB Agent Jun 11, 2014 $4.99N/A (N/A)20,000 .. 50,0000%00:00 (00:00)
17 Quantum Rush Champions Dec 4, 2014 $9.99N/A (N/A)20,000 .. 50,0000%00:00 (00:00)
18 Unhack Jan 9, 2015 $3.99N/A (N/A)20,000 .. 50,0000%00:00 (00:00)
19 Stephen's Sausage Roll Apr 17, 2016 $29.99N/A (N/A/90%)20,000 .. 50,0000%00:00 (00:00)
20 HyperRogue Jan 16, 2015 $4.99N/A (N/A)20,000 .. 50,0000%00:00 (00:00)
21 Pester Aug 21, 2015 $0.99N/A (N/A)100,000 .. 200,0000%00:00 (00:00)
22 Bob Was Hungry Aug 19, 2015 $9.99N/A (N/A)50,000 .. 100,0000%00:00 (00:00)
23 Unium Mar 27, 2015 $1.99N/A (N/A)0 .. 20,0000%00:00 (00:00)
24 Pixel Puzzles 2: Birds Feb 20, 2015 $9.99N/A (N/A)200,000 .. 500,0000%00:00 (00:00)
25 Botology Jun 24, 2015 $0.99N/A (N/A)50,000 .. 100,0000%00:00 (00:00)
26 Stay Alight Mar 2, 2015 $3.99N/A (N/A)50,000 .. 100,0000%00:00 (00:00)
27 Red Goblin: Cursed Forest May 15, 2015 $4.99N/A (N/A)0 .. 20,0000%00:00 (00:00)
28 Streets of Chaos Jan 23, 2015 N/AN/A (N/A)100,000 .. 200,0000%00:00 (00:00)
29 Aero's Quest Jun 8, 2015 $4.99N/A (N/A)0 .. 20,0000%00:00 (00:00)
30 GunWorld Nov 16, 2014 $1.99N/A (N/A)0 .. 20,0000%00:00 (00:00)
31 Gem Wars: Attack of the Jiblets Dec 14, 2015 FreeN/A (N/A)20,000 .. 50,0000%00:00 (00:00)
32 Venusian Vengeance Oct 25, 2012 $3.99N/A (N/A)20,000 .. 50,0000%00:00 (00:00)
33 Death Goat Jun 7, 2016 $2.99N/A (N/A)20,000 .. 50,0000%00:00 (00:00)
34 Avalanche 2: Super Avalanche Jun 11, 2015 $4.99N/A (N/A)20,000 .. 50,0000%00:00 (00:00)
35 Super Star Path Jun 22, 2015 $4.99N/A (N/A)20,000 .. 50,0000%00:00 (00:00)
36 Sophie's Curse Mar 16, 2016 $4.99N/A (N/A)50,000 .. 100,0000%00:00 (00:00)
37 Fingered Aug 18, 2015 $1.87N/A (N/A)50,000 .. 100,0000%00:00 (00:00)
38 A grande bagunça espacial - The big space mess Apr 5, 2016 $0.99N/A (N/A)200,000 .. 500,0000%00:00 (00:00)
39 Painters Guild Sep 1, 2015 $9.99N/A (N/A)20,000 .. 50,0000%00:00 (00:00)
40 Party Saboteurs: After Party Oct 20, 2016 $9.99N/A (N/A)0 .. 20,0000%00:00 (00:00)
41 Sentinel 4: Dark Star Aug 13, 2015 $6.99N/A (N/A)0 .. 20,0000%00:00 (00:00)
42 Burst Mar 14, 2016 N/AN/A (N/A)50,000 .. 100,0000%00:00 (00:00)
43 In Between Aug 21, 2015 $11.99N/A (N/A/68%)50,000 .. 100,0000%00:00 (00:00)
44 Autumn Sep 23, 2014 $2.99N/A (N/A)100,000 .. 200,0000%00:00 (00:00)
45 Robot vs Birds Zombies Jun 1, 2013 $0.99N/A (N/A)200,000 .. 500,00025%04:34 (01:31)
46 The Dolls: Reborn May 25, 2016 $4.99N/A (N/A)20,000 .. 50,0000%00:00 (00:00)
47 Arclight Cascade Aug 25, 2015 FreeN/A (N/A)0 .. 20,0000%00:00 (00:00)
48 Citadel Aug 17, 2016 N/AN/A (N/A)0 .. 20,0000%00:00 (00:00)
49 12 Labours of Hercules IV: Mother Nature (Platinum Edition) Dec 25, 2015 $2.99N/A (N/A)20,000 .. 50,00010%01:22 (00:27)
50 Way of Gold and Steel Aug 17, 2015 $8.99N/A (N/A)20,000 .. 50,0000%00:00 (00:00)
51 Lift It Jan 20, 2017 $4.99N/A (N/A)50,000 .. 100,0000%00:00 (00:00)
52 Machine Hunt May 15, 2017 $2.99N/A (N/A)50,000 .. 100,0000%00:00 (00:00)
53 Brother Wings Jan 10, 2017 $0.99N/A (N/A)100,000 .. 200,0000%00:00 (00:00)
54 I Expect You To Die Apr 25, 2017 $12.49N/A (N/A/77%)200,000 .. 500,0000%00:00 (00:00)
55 The guard of dungeon Mar 7, 2017 $6.99N/A (N/A)0 .. 20,0000%00:00 (00:00)
56 Running Sausage Mar 19, 2017 $0.99N/A (N/A)200,000 .. 500,0005.26%04:33 (01:31)
57 ISLANDS: Non-Places Nov 17, 2016 $4.99N/A (N/A)20,000 .. 50,0000%00:00 (00:00)
58 Grapple Mar 9, 2015 $6.99N/A (N/A)20,000 .. 50,0000%00:00 (00:00)
59 Luxor: 5th Passage Jan 25, 2011 $9.99N/A (N/A)50,000 .. 100,0000%00:00 (00:00)
60 Tribloos 2 Jan 30, 2014 $4.99N/A (N/A)20,000 .. 50,0000%00:00 (00:00)
61 Glowfish Sep 30, 2011 $9.99N/A (N/A)20,000 .. 50,0000%00:00 (00:00)
62 About Love, Hate and the other ones Dec 12, 2014 $6.99N/A (N/A)100,000 .. 200,0000%00:00 (00:00)
63 Governor of Poker 2 - Premium Edition Oct 11, 2010 $14.99N/A (N/A)20,000 .. 50,0000%00:00 (00:00)
64 On Rusty Trails Jun 13, 2016 $12.99N/A (N/A/77%)20,000 .. 50,0000%00:00 (00:00)
65 Arcadia Dec 2, 2010 $4.99N/A (N/A)0 .. 20,0000%00:00 (00:00)
66 Crazy Plant Shop Aug 4, 2014 $4.99N/A (N/A)20,000 .. 50,0000%00:00 (00:00)
67 Blocks That Matter Aug 19, 2011 $4.99N/A (N/A/72%)200,000 .. 500,0000%00:00 (00:00)
68 Pressured Jul 18, 2014 $2.99N/A (N/A)200,000 .. 500,0000%00:00 (00:00)
69 Luxor Evolved Mar 1, 2012 $9.99N/A (N/A)50,000 .. 100,0000%00:00 (00:00)
70 The Floor is Jelly May 30, 2014 $9.99N/A (N/A/83%)20,000 .. 50,0000%00:00 (00:00)
71 Highborn Feb 19, 2013 $1.99N/A (N/A)0 .. 20,0000%00:00 (00:00)
72 Swipecart May 8, 2014 $2.99N/A (N/A)100,000 .. 200,0000%00:00 (00:00)
73 Divide By Sheep Jul 2, 2015 $4.99N/A (N/A/83%)5,000,000 .. 10,000,0000.54%00:13 (00:04)
74 AaAaAA!!! - A Reckless Disregard for Gravity Sep 3, 2009 $9.99N/A (N/A/81%)100,000 .. 200,0000%00:00 (00:00)

Tags over time:

Access restricted.

This feature is only available to users with special access rights. Sorry.

If you want to proceed, you need to register or log in first and then back Steam Spy on Patreon. Look for Indie or Pro pledge.

Don't forget to use the same email as on Steam Spy!

Owners of this game also own:

Access restricted.

This feature is only available to users with special access rights. Sorry.

If you want to proceed, you need to register or log in first and then back Steam Spy on Patreon. Look for Indie or Pro pledge.

Don't forget to use the same email as on Steam Spy!

Playtime distribution:

Access restricted.

This feature is only available to users with special access rights. Sorry.

If you want to proceed, you need to register or log in first and then back Steam Spy on Patreon. Look for Indie or Pro pledge.

Don't forget to use the same email as on Steam Spy!

Playtime (2 weeks):

Access restricted.

This feature is only available to users with special access rights. Sorry.

If you want to proceed, you need to register or log in first and then back Steam Spy on Patreon. Look for Indie or Pro pledge.

Don't forget to use the same email as on Steam Spy!

User reviews:

Login required.

Please register or log in to see this information.